sensor_id;sensor_type;location;lat;lon;timestamp;temperature;humidity
40952;DHT22;26682;51.660;19.338;2023-09-19T00:00:47;17.60;99.90
40952;DHT22;26682;51.660;19.338;2023-09-19T00:03:51;17.70;99.90
40952;DHT22;26682;51.660;19.338;2023-09-19T00:06:35;17.70;99.90
40952;DHT22;26682;51.660;19.338;2023-09-19T00:09:17;17.80;99.90
40952;DHT22;26682;51.660;19.338;2023-09-19T00:12:00;17.80;99.90
40952;DHT22;26682;51.660;19.338;2023-09-19T00:14:42;18.00;99.90
40952;DHT22;26682;51.660;19.338;2023-09-19T00:17:25;18.10;99.90
40952;DHT22;26682;51.660;19.338;2023-09-19T00:20:08;18.10;99.90
40952;DHT22;26682;51.660;19.338;2023-09-19T00:22:54;18.20;39.00
40952;DHT22;26682;51.660;19.338;2023-09-19T00:25:37;18.20;1.00
40952;DHT22;26682;51.660;19.338;2023-09-19T00:28:20;18.30;1.00
40952;DHT22;26682;51.660;19.338;2023-09-19T00:31:03;18.30;1.00
40952;DHT22;26682;51.660;19.338;2023-09-19T00:33:47;18.40;1.00
40952;DHT22;26682;51.660;19.338;2023-09-19T00:36:31;18.40;99.90
40952;DHT22;26682;51.660;19.338;2023-09-19T00:39:13;18.40;1.00
40952;DHT22;26682;51.660;19.338;2023-09-19T00:41:56;18.40;1.00
40952;DHT22;26682;51.660;19.338;2023-09-19T00:44:38;18.40;1.00
40952;DHT22;26682;51.660;19.338;2023-09-19T00:47:22;18.40;1.00
40952;DHT22;26682;51.660;19.338;2023-09-19T00:50:05;18.40;99.90
40952;DHT22;26682;51.660;19.338;2023-09-19T00:52:53;18.40;99.90
40952;DHT22;26682;51.660;19.338;2023-09-19T00:55:36;18.50;99.90
40952;DHT22;26682;51.660;19.338;2023-09-19T00:58:19;18.50;99.90
40952;DHT22;26682;51.660;19.338;2023-09-19T01:01:02;18.50;99.90
40952;DHT22;26682;51.660;19.338;2023-09-19T01:03:51;18.50;99.90
40952;DHT22;26682;51.660;19.338;2023-09-19T01:06:33;18.60;1.00
40952;DHT22;26682;51.660;19.338;2023-09-19T01:09:16;18.60;1.00
40952;DHT22;26682;51.660;19.338;2023-09-19T01:12:02;18.60;1.00
40952;DHT22;26682;51.660;19.338;2023-09-19T01:14:56;18.60;99.90
40952;DHT22;26682;51.660;19.338;2023-09-19T01:18:02;18.60;99.90
40952;DHT22;26682;51.660;19.338;2023-09-19T01:20:54;18.60;99.90
40952;DHT22;26682;51.660;19.338;2023-09-19T01:29:49;18.60;1.00
40952;DHT22;26682;51.660;19.338;2023-09-19T01:32:33;18.70;99.90
40952;DHT22;26682;51.660;19.338;2023-09-19T01:35:16;18.70;1.00
40952;DHT22;26682;51.660;19.338;2023-09-19T01:37:58;18.70;99.90
40952;DHT22;26682;51.660;19.338;2023-09-19T01:40:43;18.70;99.90
40952;DHT22;26682;51.660;19.338;2023-09-19T01:43:32;18.70;99.90
40952;DHT22;26682;51.660;19.338;2023-09-19T01:46:39;18.80;1.00
40952;DHT22;26682;51.660;19.338;2023-09-19T01:49:40;18.80;99.90
40952;DHT22;26682;51.660;19.338;2023-09-19T01:52:30;18.80;99.90
40952;DHT22;26682;51.660;19.338;2023-09-19T01:55:16;18.70;99.90
40952;DHT22;26682;51.660;19.338;2023-09-19T01:58:21;18.70;99.90
40952;DHT22;26682;51.660;19.338;2023-09-19T02:01:08;18.70;99.90
40952;DHT22;26682;51.660;19.338;2023-09-19T02:03:53;18.60;1.00
40952;DHT22;26682;51.660;19.338;2023-09-19T02:06:40;18.60;1.00
40952;DHT22;26682;51.660;19.338;2023-09-19T02:09:23;18.50;99.90
40952;DHT22;26682;51.660;19.338;2023-09-19T02:12:06;18.50;99.90
40952;DHT22;26682;51.660;19.338;2023-09-19T02:14:49;18.40;99.90
40952;DHT22;26682;51.660;19.338;2023-09-19T02:17:31;18.40;99.90
40952;DHT22;26682;51.660;19.338;2023-09-19T02:20:14;18.30;99.90
40952;DHT22;26682;51.660;19.338;2023-09-19T02:23:02;18.30;99.90
40952;DHT22;26682;51.660;19.338;2023-09-19T02:25:52;18.20;99.90
40952;DHT22;26682;51.660;19.338;2023-09-19T02:28:36;18.10;99.90
40952;DHT22;26682;51.660;19.338;2023-09-19T02:31:18;18.10;99.90
40952;DHT22;26682;51.660;19.338;2023-09-19T02:34:01;18.10;1.00
40952;DHT22;26682;51.660;19.338;2023-09-19T02:36:43;18.00;99.90
40952;DHT22;26682;51.660;19.338;2023-09-19T02:39:27;18.00;1.00
40952;DHT22;26682;51.660;19.338;2023-09-19T02:42:10;18.00;1.00
40952;DHT22;26682;51.660;19.338;2023-09-19T02:44:53;17.90;1.00
40952;DHT22;26682;51.660;19.338;2023-09-19T02:47:35;17.80;78.30
40952;DHT22;26682;51.660;19.338;2023-09-19T02:50:18;17.80;67.90
40952;DHT22;26682;51.660;19.338;2023-09-19T02:53:01;17.90;60.70
40952;DHT22;26682;51.660;19.338;2023-09-19T02:55:44;17.90;90.40
40952;DHT22;26682;51.660;19.338;2023-09-19T02:58:27;17.80;99.90
40952;DHT22;26682;51.660;19.338;2023-09-19T03:01:12;17.90;99.90
40952;DHT22;26682;51.660;19.338;2023-09-19T03:03:55;17.80;99.90
40952;DHT22;26682;51.660;19.338;2023-09-19T03:06:38;17.80;40.60
40952;DHT22;26682;51.660;19.338;2023-09-19T03:09:22;17.80;13.00
40952;DHT22;26682;51.660;19.338;2023-09-19T03:12:05;17.80;1.00
40952;DHT22;26682;51.660;19.338;2023-09-19T03:14:49;17.80;1.00
40952;DHT22;26682;51.660;19.338;2023-09-19T03:17:33;17.70;1.00
40952;DHT22;26682;51.660;19.338;2023-09-19T03:20:16;17.70;3.20
40952;DHT22;26682;51.660;19.338;2023-09-19T03:23:04;17.70;99.90
40952;DHT22;26682;51.660;19.338;2023-09-19T03:25:49;17.70;99.90
40952;DHT22;26682;51.660;19.338;2023-09-19T03:28:33;17.60;99.90
40952;DHT22;26682;51.660;19.338;2023-09-19T03:31:17;17.60;99.90
40952;DHT22;26682;51.660;19.338;2023-09-19T03:34:02;17.50;99.90
40952;DHT22;26682;51.660;19.338;2023-09-19T03:36:45;17.50;99.90
40952;DHT22;26682;51.660;19.338;2023-09-19T03:39:28;17.50;99.90
40952;DHT22;26682;51.660;19.338;2023-09-19T03:42:10;17.40;99.90
40952;DHT22;26682;51.660;19.338;2023-09-19T03:44:53;17.40;99.90
40952;DHT22;26682;51.660;19.338;2023-09-19T03:47:37;17.40;1.00
40952;DHT22;26682;51.660;19.338;2023-09-19T03:50:20;17.40;1.00
40952;DHT22;26682;51.660;19.338;2023-09-19T03:53:04;17.30;1.00
40952;DHT22;26682;51.660;19.338;2023-09-19T03:55:46;17.30;1.00
40952;DHT22;26682;51.660;19.338;2023-09-19T03:58:29;17.30;1.00
40952;DHT22;26682;51.660;19.338;2023-09-19T04:01:12;17.20;1.00
40952;DHT22;26682;51.660;19.338;2023-09-19T04:03:56;17.20;1.00
40952;DHT22;26682;51.660;19.338;2023-09-19T04:06:39;17.20;1.00
40952;DHT22;26682;51.660;19.338;2023-09-19T04:09:21;17.10;1.00
40952;DHT22;26682;51.660;19.338;2023-09-19T04:12:04;17.10;40.50
40952;DHT22;26682;51.660;19.338;2023-09-19T04:14:47;17.10;44.80
40952;DHT22;26682;51.660;19.338;2023-09-19T04:17:30;17.10;89.30
40952;DHT22;26682;51.660;19.338;2023-09-19T04:20:16;17.10;99.90
40952;DHT22;26682;51.660;19.338;2023-09-19T04:23:00;17.10;99.90
40952;DHT22;26682;51.660;19.338;2023-09-19T04:25:43;17.10;95.40
40952;DHT22;26682;51.660;19.338;2023-09-19T04:28:25;17.10;99.90
40952;DHT22;26682;51.660;19.338;2023-09-19T04:31:11;17.10;99.90
40952;DHT22;26682;51.660;19.338;2023-09-19T04:33:54;17.10;99.90
40952;DHT22;26682;51.660;19.338;2023-09-19T04:36:36;17.10;99.90
40952;DHT22;26682;51.660;19.338;2023-09-19T04:39:22;17.20;99.90
40952;DHT22;26682;51.660;19.338;2023-09-19T04:42:07;17.20;99.90
40952;DHT22;26682;51.660;19.338;2023-09-19T04:44:50;17.20;99.90
40952;DHT22;26682;51.660;19.338;2023-09-19T04:47:36;17.30;99.90
40952;DHT22;26682;51.660;19.338;2023-09-19T04:50:21;17.30;99.90
40952;DHT22;26682;51.660;19.338;2023-09-19T04:53:05;17.40;60.30
40952;DHT22;26682;51.660;19.338;2023-09-19T04:55:51;17.40;37.90
40952;DHT22;26682;51.660;19.338;2023-09-19T04:58:34;17.50;1.00
40952;DHT22;26682;51.660;19.338;2023-09-19T05:01:17;17.50;1.00
40952;DHT22;26682;51.660;19.338;2023-09-19T05:03:59;17.50;1.00
40952;DHT22;26682;51.660;19.338;2023-09-19T05:06:43;17.60;99.90
40952;DHT22;26682;51.660;19.338;2023-09-19T05:09:28;17.60;99.90
40952;DHT22;26682;51.660;19.338;2023-09-19T05:12:10;17.70;99.90
40952;DHT22;26682;51.660;19.338;2023-09-19T05:14:53;17.70;99.90
40952;DHT22;26682;51.660;19.338;2023-09-19T05:17:35;17.70;99.90
40952;DHT22;26682;51.660;19.338;2023-09-19T05:20:18;17.80;99.90
40952;DHT22;26682;51.660;19.338;2023-09-19T05:23:12;17.80;99.90
40952;DHT22;26682;51.660;19.338;2023-09-19T05:25:54;17.80;1.00
40952;DHT22;26682;51.660;19.338;2023-09-19T05:28:39;17.80;51.70
40952;DHT22;26682;51.660;19.338;2023-09-19T05:31:21;17.80;99.90
40952;DHT22;26682;51.660;19.338;2023-09-19T05:34:05;17.80;99.90
40952;DHT22;26682;51.660;19.338;2023-09-19T05:36:48;17.80;99.90
40952;DHT22;26682;51.660;19.338;2023-09-19T05:39:31;17.80;1.00
40952;DHT22;26682;51.660;19.338;2023-09-19T05:42:13;17.80;1.00
40952;DHT22;26682;51.660;19.338;2023-09-19T05:44:56;17.70;1.00
40952;DHT22;26682;51.660;19.338;2023-09-19T05:47:42;17.60;1.00
40952;DHT22;26682;51.660;19.338;2023-09-19T05:50:26;17.50;99.90
40952;DHT22;26682;51.660;19.338;2023-09-19T05:53:09;17.50;99.90
40952;DHT22;26682;51.660;19.338;2023-09-19T05:55:55;17.50;99.90
40952;DHT22;26682;51.660;19.338;2023-09-19T05:58:38;17.50;99.90
40952;DHT22;26682;51.660;19.338;2023-09-19T06:01:21;17.40;99.90
40952;DHT22;26682;51.660;19.338;2023-09-19T06:04:04;17.40;99.90
40952;DHT22;26682;51.660;19.338;2023-09-19T06:06:47;17.40;99.90
40952;DHT22;26682;51.660;19.338;2023-09-19T06:09:30;17.30;99.90
40952;DHT22;26682;51.660;19.338;2023-09-19T06:12:14;17.40;99.90
40952;DHT22;26682;51.660;19.338;2023-09-19T06:14:59;17.30;99.90
40952;DHT22;26682;51.660;19.338;2023-09-19T06:17:43;17.30;99.90
40952;DHT22;26682;51.660;19.338;2023-09-19T06:20:26;17.30;99.90
40952;DHT22;26682;51.660;19.338;2023-09-19T06:23:09;17.30;99.90
40952;DHT22;26682;51.660;19.338;2023-09-19T06:25:52;17.30;99.90
40952;DHT22;26682;51.660;19.338;2023-09-19T06:28:39;17.40;99.90
40952;DHT22;26682;51.660;19.338;2023-09-19T06:31:22;17.40;99.90
40952;DHT22;26682;51.660;19.338;2023-09-19T06:34:08;17.40;99.90
40952;DHT22;26682;51.660;19.338;2023-09-19T06:36:52;17.30;99.90
40952;DHT22;26682;51.660;19.338;2023-09-19T06:39:34;17.30;99.90
40952;DHT22;26682;51.660;19.338;2023-09-19T06:42:16;17.40;99.90
40952;DHT22;26682;51.660;19.338;2023-09-19T06:45:04;17.50;99.90
40952;DHT22;26682;51.660;19.338;2023-09-19T06:47:50;17.50;99.90
40952;DHT22;26682;51.660;19.338;2023-09-19T06:50:34;17.50;99.90
40952;DHT22;26682;51.660;19.338;2023-09-19T06:53:18;17.60;99.90
40952;DHT22;26682;51.660;19.338;2023-09-19T06:56:00;17.60;99.90
40952;DHT22;26682;51.660;19.338;2023-09-19T06:58:43;17.70;99.90
40952;DHT22;26682;51.660;19.338;2023-09-19T07:01:26;17.70;99.90
40952;DHT22;26682;51.660;19.338;2023-09-19T07:04:08;17.80;99.90
40952;DHT22;26682;51.660;19.338;2023-09-19T07:06:52;17.80;99.90
40952;DHT22;26682;51.660;19.338;2023-09-19T07:09:34;17.90;99.90
40952;DHT22;26682;51.660;19.338;2023-09-19T07:12:17;17.90;99.90
40952;DHT22;26682;51.660;19.338;2023-09-19T07:15:00;17.90;99.90
40952;DHT22;26682;51.660;19.338;2023-09-19T07:17:42;17.80;99.90
40952;DHT22;26682;51.660;19.338;2023-09-19T07:20:25;17.80;99.90
40952;DHT22;26682;51.660;19.338;2023-09-19T07:23:09;17.80;99.90
40952;DHT22;26682;51.660;19.338;2023-09-19T07:25:51;17.80;99.90
40952;DHT22;26682;51.660;19.338;2023-09-19T07:28:34;17.90;99.90
40952;DHT22;26682;51.660;19.338;2023-09-19T07:31:18;17.90;99.90
40952;DHT22;26682;51.660;19.338;2023-09-19T07:34:01;18.00;99.90
40952;DHT22;26682;51.660;19.338;2023-09-19T07:36:47;18.00;99.90
40952;DHT22;26682;51.660;19.338;2023-09-19T07:39:30;18.10;99.90
40952;DHT22;26682;51.660;19.338;2023-09-19T07:42:12;18.20;99.90
40952;DHT22;26682;51.660;19.338;2023-09-19T07:45:01;18.20;99.90
40952;DHT22;26682;51.660;19.338;2023-09-19T07:47:44;18.20;99.90
40952;DHT22;26682;51.660;19.338;2023-09-19T07:50:28;18.20;99.90
40952;DHT22;26682;51.660;19.338;2023-09-19T07:53:11;18.30;99.90
40952;DHT22;26682;51.660;19.338;2023-09-19T07:56:03;18.40;99.90
40952;DHT22;26682;51.660;19.338;2023-09-19T07:58:46;18.40;99.90
40952;DHT22;26682;51.660;19.338;2023-09-19T08:01:29;18.40;99.90
40952;DHT22;26682;51.660;19.338;2023-09-19T08:04:11;18.40;99.90
40952;DHT22;26682;51.660;19.338;2023-09-19T08:06:54;18.30;99.90
40952;DHT22;26682;51.660;19.338;2023-09-19T08:09:38;18.40;99.90
40952;DHT22;26682;51.660;19.338;2023-09-19T08:12:22;18.40;99.90
40952;DHT22;26682;51.660;19.338;2023-09-19T08:15:05;18.50;99.90
40952;DHT22;26682;51.660;19.338;2023-09-19T08:17:48;18.60;99.90
40952;DHT22;26682;51.660;19.338;2023-09-19T08:20:31;18.70;99.90
40952;DHT22;26682;51.660;19.338;2023-09-19T08:23:15;18.90;99.90
40952;DHT22;26682;51.660;19.338;2023-09-19T08:26:00;18.90;99.90
40952;DHT22;26682;51.660;19.338;2023-09-19T08:28:45;18.90;99.90
40952;DHT22;26682;51.660;19.338;2023-09-19T08:31:28;19.00;99.90
40952;DHT22;26682;51.660;19.338;2023-09-19T08:34:12;19.10;99.90
40952;DHT22;26682;51.660;19.338;2023-09-19T08:36:55;19.30;99.90
40952;DHT22;26682;51.660;19.338;2023-09-19T08:39:40;19.40;99.90
40952;DHT22;26682;51.660;19.338;2023-09-19T08:42:23;19.40;99.90
40952;DHT22;26682;51.660;19.338;2023-09-19T08:45:08;19.50;99.90
40952;DHT22;26682;51.660;19.338;2023-09-19T08:47:59;19.60;99.90
40952;DHT22;26682;51.660;19.338;2023-09-19T08:51:07;19.60;99.90
40952;DHT22;26682;51.660;19.338;2023-09-19T08:54:08;19.70;99.90
40952;DHT22;26682;51.660;19.338;2023-09-19T08:56:54;19.70;99.90
40952;DHT22;26682;51.660;19.338;2023-09-19T08:59:39;19.60;99.90
40952;DHT22;26682;51.660;19.338;2023-09-19T09:02:23;19.70;99.90
40952;DHT22;26682;51.660;19.338;2023-09-19T09:05:10;19.60;99.90
40952;DHT22;26682;51.660;19.338;2023-09-19T09:07:53;19.50;99.90
40952;DHT22;26682;51.660;19.338;2023-09-19T09:10:39;19.50;99.90
40952;DHT22;26682;51.660;19.338;2023-09-19T09:13:24;19.50;99.90
40952;DHT22;26682;51.660;19.338;2023-09-19T09:16:08;19.50;99.90
40952;DHT22;26682;51.660;19.338;2023-09-19T09:18:53;19.60;99.90
40952;DHT22;26682;51.660;19.338;2023-09-19T09:21:37;19.70;99.90
40952;DHT22;26682;51.660;19.338;2023-09-19T09:24:31;19.60;99.90
40952;DHT22;26682;51.660;19.338;2023-09-19T09:27:16;19.80;99.90
40952;DHT22;26682;51.660;19.338;2023-09-19T09:30:00;19.80;99.90
40952;DHT22;26682;51.660;19.338;2023-09-19T09:32:43;19.90;99.90
40952;DHT22;26682;51.660;19.338;2023-09-19T09:35:55;19.90;99.90
40952;DHT22;26682;51.660;19.338;2023-09-19T09:38:47;20.00;99.90
40952;DHT22;26682;51.660;19.338;2023-09-19T09:41:37;19.90;99.90
40952;DHT22;26682;51.660;19.338;2023-09-19T09:44:21;20.00;99.90
40952;DHT22;26682;51.660;19.338;2023-09-19T09:47:04;20.20;99.90
40952;DHT22;26682;51.660;19.338;2023-09-19T09:53:26;20.20;99.90
40952;DHT22;26682;51.660;19.338;2023-09-19T09:56:19;20.20;99.90
40952;DHT22;26682;51.660;19.338;2023-09-19T09:59:01;20.10;99.90
40952;DHT22;26682;51.660;19.338;2023-09-19T10:01:48;20.20;99.90
40952;DHT22;26682;51.660;19.338;2023-09-19T10:04:31;20.30;99.90
40952;DHT22;26682;51.660;19.338;2023-09-19T10:07:28;20.50;99.90
40952;DHT22;26682;51.660;19.338;2023-09-19T10:10:15;20.40;99.90
40952;DHT22;26682;51.660;19.338;2023-09-19T10:13:05;20.30;99.90
40952;DHT22;26682;51.660;19.338;2023-09-19T10:15:51;20.20;99.90
40952;DHT22;26682;51.660;19.338;2023-09-19T10:18:36;20.20;99.90
40952;DHT22;26682;51.660;19.338;2023-09-19T10:21:19;20.10;99.90
40952;DHT22;26682;51.660;19.338;2023-09-19T10:24:05;20.10;99.90
40952;DHT22;26682;51.660;19.338;2023-09-19T10:26:51;20.10;99.90
40952;DHT22;26682;51.660;19.338;2023-09-19T10:29:36;19.90;99.90
40952;DHT22;26682;51.660;19.338;2023-09-19T10:32:22;19.90;99.90
40952;DHT22;26682;51.660;19.338;2023-09-19T10:35:06;19.80;99.90
40952;DHT22;26682;51.660;19.338;2023-09-19T10:37:52;19.80;99.90
40952;DHT22;26682;51.660;19.338;2023-09-19T10:40:37;19.90;99.90
40952;DHT22;26682;51.660;19.338;2023-09-19T10:43:29;20.00;99.90
40952;DHT22;26682;51.660;19.338;2023-09-19T10:46:17;20.00;99.90
40952;DHT22;26682;51.660;19.338;2023-09-19T10:49:00;20.10;99.90
40952;DHT22;26682;51.660;19.338;2023-09-19T10:51:44;20.20;99.90
40952;DHT22;26682;51.660;19.338;2023-09-19T10:54:32;20.10;99.90
40952;DHT22;26682;51.660;19.338;2023-09-19T10:57:22;20.10;99.90
40952;DHT22;26682;51.660;19.338;2023-09-19T11:00:07;19.90;99.90
40952;DHT22;26682;51.660;19.338;2023-09-19T11:06:14;19.60;99.90
40952;DHT22;26682;51.660;19.338;2023-09-19T11:09:01;19.50;99.90
40952;DHT22;26682;51.660;19.338;2023-09-19T11:12:07;19.40;99.90
40952;DHT22;26682;51.660;19.338;2023-09-19T11:14:50;19.40;99.90
40952;DHT22;26682;51.660;19.338;2023-09-19T11:17:36;19.50;99.90
40952;DHT22;26682;51.660;19.338;2023-09-19T11:20:25;19.50;99.90
40952;DHT22;26682;51.660;19.338;2023-09-19T11:23:18;19.40;99.90
40952;DHT22;26682;51.660;19.338;2023-09-19T11:26:01;19.30;99.90
40952;DHT22;26682;51.660;19.338;2023-09-19T11:28:44;19.40;99.90
40952;DHT22;26682;51.660;19.338;2023-09-19T11:31:43;19.50;99.90
40952;DHT22;26682;51.660;19.338;2023-09-19T11:40:08;19.70;99.90
40952;DHT22;26682;51.660;19.338;2023-09-19T11:42:58;19.80;99.90
40952;DHT22;26682;51.660;19.338;2023-09-19T11:48:39;20.00;99.90
40952;DHT22;26682;51.660;19.338;2023-09-19T11:51:24;20.00;99.90
40952;DHT22;26682;51.660;19.338;2023-09-19T11:54:14;19.90;99.90
40952;DHT22;26682;51.660;19.338;2023-09-19T11:57:11;19.90;99.90
40952;DHT22;26682;51.660;19.338;2023-09-19T12:00:02;20.00;99.90
40952;DHT22;26682;51.660;19.338;2023-09-19T12:02:55;20.00;99.90
40952;DHT22;26682;51.660;19.338;2023-09-19T12:05:43;20.10;99.90
40952;DHT22;26682;51.660;19.338;2023-09-19T12:08:26;20.00;94.30
40952;DHT22;26682;51.660;19.338;2023-09-19T12:11:16;20.00;97.40
40952;DHT22;26682;51.660;19.338;2023-09-19T12:14:00;20.10;78.30
40952;DHT22;26682;51.660;19.338;2023-09-19T12:16:52;20.00;74.20
40952;DHT22;26682;51.660;19.338;2023-09-19T12:19:38;19.90;34.10
40952;DHT22;26682;51.660;19.338;2023-09-19T12:22:20;19.80;65.00
40952;DHT22;26682;51.660;19.338;2023-09-19T12:25:06;19.80;52.10
40952;DHT22;26682;51.660;19.338;2023-09-19T12:27:50;19.60;70.80
40952;DHT22;26682;51.660;19.338;2023-09-19T12:30:36;19.70;99.90
40952;DHT22;26682;51.660;19.338;2023-09-19T12:33:19;19.70;99.90
40952;DHT22;26682;51.660;19.338;2023-09-19T12:36:20;19.70;99.90
40952;DHT22;26682;51.660;19.338;2023-09-19T12:39:07;19.70;54.40
40952;DHT22;26682;51.660;19.338;2023-09-19T12:41:52;19.70;48.80
40952;DHT22;26682;51.660;19.338;2023-09-19T12:44:37;19.90;49.20
40952;DHT22;26682;51.660;19.338;2023-09-19T12:47:20;20.20;14.30
40952;DHT22;26682;51.660;19.338;2023-09-19T12:50:13;20.30;99.90
40952;DHT22;26682;51.660;19.338;2023-09-19T12:53:25;20.40;99.90
40952;DHT22;26682;51.660;19.338;2023-09-19T12:56:12;20.40;99.90
40952;DHT22;26682;51.660;19.338;2023-09-19T12:58:58;20.60;99.90
40952;DHT22;26682;51.660;19.338;2023-09-19T13:01:45;20.80;99.90
40952;DHT22;26682;51.660;19.338;2023-09-19T13:04:32;20.80;1.00
40952;DHT22;26682;51.660;19.338;2023-09-19T13:07:40;20.80;1.00
40952;DHT22;26682;51.660;19.338;2023-09-19T13:10:26;20.80;99.90
40952;DHT22;26682;51.660;19.338;2023-09-19T13:13:24;20.80;99.90
40952;DHT22;26682;51.660;19.338;2023-09-19T13:16:11;20.80;99.90
40952;DHT22;26682;51.660;19.338;2023-09-19T13:18:57;20.80;1.00
40952;DHT22;26682;51.660;19.338;2023-09-19T13:21:40;20.90;99.90
40952;DHT22;26682;51.660;19.338;2023-09-19T13:24:27;20.80;99.90
40952;DHT22;26682;51.660;19.338;2023-09-19T13:27:10;20.90;99.90
40952;DHT22;26682;51.660;19.338;2023-09-19T13:29:53;21.00;1.00
40952;DHT22;26682;51.660;19.338;2023-09-19T13:32:35;21.10;1.00
40952;DHT22;26682;51.660;19.338;2023-09-19T13:35:18;20.90;99.90
40952;DHT22;26682;51.660;19.338;2023-09-19T13:38:01;20.80;99.90
40952;DHT22;26682;51.660;19.338;2023-09-19T13:40:44;20.80;99.90
40952;DHT22;26682;51.660;19.338;2023-09-19T13:43:27;20.70;59.70
40952;DHT22;26682;51.660;19.338;2023-09-19T13:46:11;20.70;33.40
40952;DHT22;26682;51.660;19.338;2023-09-19T13:48:58;20.70;99.90
40952;DHT22;26682;51.660;19.338;2023-09-19T13:51:44;20.80;13.20
40952;DHT22;26682;51.660;19.338;2023-09-19T13:54:28;20.80;74.80
40952;DHT22;26682;51.660;19.338;2023-09-19T13:57:10;20.90;57.60
40952;DHT22;26682;51.660;19.338;2023-09-19T13:59:53;20.90;95.50
40952;DHT22;26682;51.660;19.338;2023-09-19T14:02:36;20.90;99.90
40952;DHT22;26682;51.660;19.338;2023-09-19T14:05:20;21.00;99.90
40952;DHT22;26682;51.660;19.338;2023-09-19T14:08:03;21.10;99.90
40952;DHT22;26682;51.660;19.338;2023-09-19T14:10:46;21.10;1.00
40952;DHT22;26682;51.660;19.338;2023-09-19T14:13:28;21.20;99.90
40952;DHT22;26682;51.660;19.338;2023-09-19T14:16:11;21.20;1.00
40952;DHT22;26682;51.660;19.338;2023-09-19T14:18:54;21.10;43.20
40952;DHT22;26682;51.660;19.338;2023-09-19T14:21:36;21.10;99.90
40952;DHT22;26682;51.660;19.338;2023-09-19T14:24:22;20.90;37.80
40952;DHT22;26682;51.660;19.338;2023-09-19T14:27:05;20.90;99.90
40952;DHT22;26682;51.660;19.338;2023-09-19T14:29:49;21.00;1.00
40952;DHT22;26682;51.660;19.338;2023-09-19T14:32:31;21.00;9.00
40952;DHT22;26682;51.660;19.338;2023-09-19T14:35:14;21.00;65.30
40952;DHT22;26682;51.660;19.338;2023-09-19T14:37:57;21.00;1.00
40952;DHT22;26682;51.660;19.338;2023-09-19T14:40:40;20.90;1.00
40952;DHT22;26682;51.660;19.338;2023-09-19T14:43:23;20.80;99.90
40952;DHT22;26682;51.660;19.338;2023-09-19T14:46:06;20.80;99.90
40952;DHT22;26682;51.660;19.338;2023-09-19T14:48:56;20.80;99.90
40952;DHT22;26682;51.660;19.338;2023-09-19T14:51:42;20.80;99.90
40952;DHT22;26682;51.660;19.338;2023-09-19T14:54:27;20.80;91.20
40952;DHT22;26682;51.660;19.338;2023-09-19T14:57:11;20.80;99.90
40952;DHT22;26682;51.660;19.338;2023-09-19T14:59:56;20.80;99.90
40952;DHT22;26682;51.660;19.338;2023-09-19T15:02:39;20.70;99.90
40952;DHT22;26682;51.660;19.338;2023-09-19T15:05:23;20.80;99.90
40952;DHT22;26682;51.660;19.338;2023-09-19T15:08:06;20.80;99.90
40952;DHT22;26682;51.660;19.338;2023-09-19T15:10:50;20.80;99.90
40952;DHT22;26682;51.660;19.338;2023-09-19T15:13:35;20.80;99.90
40952;DHT22;26682;51.660;19.338;2023-09-19T15:16:18;20.70;1.00
40952;DHT22;26682;51.660;19.338;2023-09-19T15:19:01;20.60;99.90
40952;DHT22;26682;51.660;19.338;2023-09-19T15:21:44;20.60;99.90
40952;DHT22;26682;51.660;19.338;2023-09-19T15:24:27;20.50;99.90
40952;DHT22;26682;51.660;19.338;2023-09-19T15:27:10;20.50;99.90
40952;DHT22;26682;51.660;19.338;2023-09-19T15:29:53;20.40;99.90
40952;DHT22;26682;51.660;19.338;2023-09-19T15:32:36;20.40;99.90
40952;DHT22;26682;51.660;19.338;2023-09-19T15:35:18;20.30;99.90
40952;DHT22;26682;51.660;19.338;2023-09-19T15:38:01;20.30;99.90
40952;DHT22;26682;51.660;19.338;2023-09-19T15:40:48;20.20;43.40
40952;DHT22;26682;51.660;19.338;2023-09-19T15:43:31;20.20;1.00
40952;DHT22;26682;51.660;19.338;2023-09-19T15:46:16;20.10;39.50
40952;DHT22;26682;51.660;19.338;2023-09-19T15:48:59;20.00;1.00
40952;DHT22;26682;51.660;19.338;2023-09-19T15:51:43;20.00;11.10
40952;DHT22;26682;51.660;19.338;2023-09-19T15:54:26;19.90;1.00
40952;DHT22;26682;51.660;19.338;2023-09-19T15:57:09;19.80;1.00
40952;DHT22;26682;51.660;19.338;2023-09-19T15:59:55;19.70;1.00
40952;DHT22;26682;51.660;19.338;2023-09-19T16:02:40;19.60;1.00
40952;DHT22;26682;51.660;19.338;2023-09-19T16:05:23;19.50;99.90
40952;DHT22;26682;51.660;19.338;2023-09-19T16:08:06;19.50;99.90
40952;DHT22;26682;51.660;19.338;2023-09-19T16:10:50;19.40;99.90
40952;DHT22;26682;51.660;19.338;2023-09-19T16:13:34;19.30;38.40
40952;DHT22;26682;51.660;19.338;2023-09-19T16:16:17;19.20;1.00
40952;DHT22;26682;51.660;19.338;2023-09-19T16:19:03;19.10;1.00
40952;DHT22;26682;51.660;19.338;2023-09-19T16:21:48;19.00;99.90
40952;DHT22;26682;51.660;19.338;2023-09-19T16:24:30;18.90;99.90
40952;DHT22;26682;51.660;19.338;2023-09-19T16:27:13;18.90;99.90
40952;DHT22;26682;51.660;19.338;2023-09-19T16:29:57;18.80;99.90
40952;DHT22;26682;51.660;19.338;2023-09-19T16:32:40;18.80;99.90
40952;DHT22;26682;51.660;19.338;2023-09-19T16:35:23;18.70;1.00
40952;DHT22;26682;51.660;19.338;2023-09-19T16:38:05;18.60;99.90
40952;DHT22;26682;51.660;19.338;2023-09-19T16:40:55;18.40;1.00
40952;DHT22;26682;51.660;19.338;2023-09-19T16:43:38;18.30;99.90
40952;DHT22;26682;51.660;19.338;2023-09-19T16:46:21;18.20;99.90
40952;DHT22;26682;51.660;19.338;2023-09-19T16:49:03;18.10;99.90
40952;DHT22;26682;51.660;19.338;2023-09-19T16:51:47;17.90;30.50
40952;DHT22;26682;51.660;19.338;2023-09-19T16:54:29;17.80;1.00
40952;DHT22;26682;51.660;19.338;2023-09-19T16:57:12;17.80;99.90
40952;DHT22;26682;51.660;19.338;2023-09-19T16:59:54;17.70;99.90
40952;DHT22;26682;51.660;19.338;2023-09-19T17:02:38;17.60;99.90
40952;DHT22;26682;51.660;19.338;2023-09-19T17:05:20;17.60;99.90
40952;DHT22;26682;51.660;19.338;2023-09-19T17:08:03;17.50;99.90
40952;DHT22;26682;51.660;19.338;2023-09-19T17:10:47;17.50;99.90
40952;DHT22;26682;51.660;19.338;2023-09-19T17:13:30;17.40;99.90
40952;DHT22;26682;51.660;19.338;2023-09-19T17:16:14;17.30;99.90
40952;DHT22;26682;51.660;19.338;2023-09-19T17:19:03;17.20;1.00
40952;DHT22;26682;51.660;19.338;2023-09-19T17:21:47;17.10;1.00
40952;DHT22;26682;51.660;19.338;2023-09-19T17:24:29;17.10;1.00
40952;DHT22;26682;51.660;19.338;2023-09-19T17:27:12;17.00;1.00
40952;DHT22;26682;51.660;19.338;2023-09-19T17:29:54;17.00;1.00
40952;DHT22;26682;51.660;19.338;2023-09-19T17:32:37;16.90;1.00